sensor_id;sensor_type;location;lat;lon;timestamp;P1;durP1;ratioP1;P2;durP2;ratioP2
15102;SDS011;7652;53.584;9.998;2023-02-15T00:02:53;43.93;;;22.67;;
15102;SDS011;7652;53.584;9.998;2023-02-15T00:05:56;39.80;;;22.13;;
15102;SDS011;7652;53.584;9.998;2023-02-15T00:09:00;47.03;;;22.97;;
15102;SDS011;7652;53.584;9.998;2023-02-15T00:12:05;43.90;;;23.70;;
15102;SDS011;7652;53.584;9.998;2023-02-15T00:15:08;46.50;;;22.47;;
15102;SDS011;7652;53.584;9.998;2023-02-15T00:18:12;45.53;;;24.00;;
15102;SDS011;7652;53.584;9.998;2023-02-15T00:21:16;46.30;;;24.37;;
15102;SDS011;7652;53.584;9.998;2023-02-15T00:24:19;49.97;;;24.03;;
15102;SDS011;7652;53.584;9.998;2023-02-15T00:27:23;48.17;;;24.73;;
15102;SDS011;7652;53.584;9.998;2023-02-15T00:30:26;45.47;;;23.40;;
15102;SDS011;7652;53.584;9.998;2023-02-15T00:33:29;47.33;;;24.17;;
15102;SDS011;7652;53.584;9.998;2023-02-15T00:36:32;47.97;;;24.83;;
15102;SDS011;7652;53.584;9.998;2023-02-15T00:39:36;48.00;;;23.67;;
15102;SDS011;7652;53.584;9.998;2023-02-15T00:42:40;45.43;;;23.20;;
15102;SDS011;7652;53.584;9.998;2023-02-15T00:45:44;41.40;;;22.67;;
15102;SDS011;7652;53.584;9.998;2023-02-15T00:48:47;54.57;;;25.20;;
15102;SDS011;7652;53.584;9.998;2023-02-15T00:51:51;45.97;;;23.47;;
15102;SDS011;7652;53.584;9.998;2023-02-15T00:54:54;45.47;;;24.47;;
15102;SDS011;7652;53.584;9.998;2023-02-15T00:57:58;49.43;;;24.43;;
15102;SDS011;7652;53.584;9.998;2023-02-15T01:01:05;46.33;;;23.73;;
15102;SDS011;7652;53.584;9.998;2023-02-15T01:04:09;46.93;;;23.30;;
15102;SDS011;7652;53.584;9.998;2023-02-15T01:07:12;47.07;;;23.73;;
15102;SDS011;7652;53.584;9.998;2023-02-15T01:10:15;48.80;;;25.10;;
15102;SDS011;7652;53.584;9.998;2023-02-15T01:13:20;48.17;;;24.10;;
15102;SDS011;7652;53.584;9.998;2023-02-15T01:16:23;49.47;;;24.13;;
15102;SDS011;7652;53.584;9.998;2023-02-15T01:19:28;46.90;;;23.97;;
15102;SDS011;7652;53.584;9.998;2023-02-15T01:22:31;50.83;;;24.03;;
15102;SDS011;7652;53.584;9.998;2023-02-15T01:25:34;44.17;;;22.10;;
15102;SDS011;7652;53.584;9.998;2023-02-15T01:28:39;46.80;;;23.90;;
15102;SDS011;7652;53.584;9.998;2023-02-15T01:31:43;42.73;;;22.30;;
15102;SDS011;7652;53.584;9.998;2023-02-15T01:34:46;46.80;;;23.60;;
15102;SDS011;7652;53.584;9.998;2023-02-15T01:37:49;43.43;;;22.03;;
15102;SDS011;7652;53.584;9.998;2023-02-15T01:40:52;47.60;;;23.07;;
15102;SDS011;7652;53.584;9.998;2023-02-15T01:47:58;43.80;;;22.47;;
15102;SDS011;7652;53.584;9.998;2023-02-15T01:51:04;43.43;;;22.03;;
15102;SDS011;7652;53.584;9.998;2023-02-15T01:54:08;41.90;;;23.03;;
15102;SDS011;7652;53.584;9.998;2023-02-15T01:57:16;49.27;;;24.70;;
15102;SDS011;7652;53.584;9.998;2023-02-15T02:00:25;49.43;;;22.70;;
15102;SDS011;7652;53.584;9.998;2023-02-15T02:03:30;42.60;;;22.83;;
15102;SDS011;7652;53.584;9.998;2023-02-15T02:06:43;48.17;;;23.47;;
15102;SDS011;7652;53.584;9.998;2023-02-15T02:09:48;45.80;;;23.03;;
15102;SDS011;7652;53.584;9.998;2023-02-15T02:12:52;41.70;;;21.73;;
15102;SDS011;7652;53.584;9.998;2023-02-15T02:16:00;43.07;;;23.17;;
15102;SDS011;7652;53.584;9.998;2023-02-15T02:19:19;44.60;;;23.23;;
15102;SDS011;7652;53.584;9.998;2023-02-15T02:23:01;43.10;;;22.90;;
15102;SDS011;7652;53.584;9.998;2023-02-15T02:33:45;50.93;;;24.63;;
15102;SDS011;7652;53.584;9.998;2023-02-15T02:36:55;45.77;;;22.27;;
15102;SDS011;7652;53.584;9.998;2023-02-15T02:40:06;51.47;;;23.50;;
15102;SDS011;7652;53.584;9.998;2023-02-15T02:43:15;45.57;;;22.70;;
15102;SDS011;7652;53.584;9.998;2023-02-15T02:46:24;45.60;;;22.20;;
15102;SDS011;7652;53.584;9.998;2023-02-15T02:49:34;48.07;;;23.27;;
15102;SDS011;7652;53.584;9.998;2023-02-15T02:52:40;45.60;;;22.93;;
15102;SDS011;7652;53.584;9.998;2023-02-15T02:55:45;42.20;;;22.97;;
15102;SDS011;7652;53.584;9.998;2023-02-15T02:58:52;49.17;;;23.00;;
15102;SDS011;7652;53.584;9.998;2023-02-15T03:02:00;45.63;;;22.33;;
15102;SDS011;7652;53.584;9.998;2023-02-15T03:05:11;42.23;;;20.80;;
15102;SDS011;7652;53.584;9.998;2023-02-15T03:08:18;40.13;;;21.63;;
15102;SDS011;7652;53.584;9.998;2023-02-15T03:11:24;37.90;;;21.40;;
15102;SDS011;7652;53.584;9.998;2023-02-15T03:14:27;48.43;;;21.90;;
15102;SDS011;7652;53.584;9.998;2023-02-15T03:17:31;39.47;;;19.93;;
15102;SDS011;7652;53.584;9.998;2023-02-15T03:20:36;41.43;;;21.80;;
15102;SDS011;7652;53.584;9.998;2023-02-15T03:23:40;45.37;;;23.60;;
15102;SDS011;7652;53.584;9.998;2023-02-15T03:26:45;41.83;;;21.37;;
15102;SDS011;7652;53.584;9.998;2023-02-15T03:29:51;39.70;;;20.80;;
15102;SDS011;7652;53.584;9.998;2023-02-15T03:32:56;40.10;;;20.77;;
15102;SDS011;7652;53.584;9.998;2023-02-15T03:36:04;39.70;;;20.43;;
15102;SDS011;7652;53.584;9.998;2023-02-15T03:39:13;43.33;;;21.67;;
15102;SDS011;7652;53.584;9.998;2023-02-15T03:42:22;42.57;;;22.40;;
15102;SDS011;7652;53.584;9.998;2023-02-15T03:45:31;42.60;;;21.30;;
15102;SDS011;7652;53.584;9.998;2023-02-15T03:48:36;36.57;;;19.33;;
15102;SDS011;7652;53.584;9.998;2023-02-15T03:51:44;37.70;;;20.70;;
15102;SDS011;7652;53.584;9.998;2023-02-15T03:54:50;38.80;;;21.27;;
15102;SDS011;7652;53.584;9.998;2023-02-15T03:57:54;40.90;;;20.30;;
15102;SDS011;7652;53.584;9.998;2023-02-15T04:01:17;38.87;;;20.43;;
15102;SDS011;7652;53.584;9.998;2023-02-15T04:04:46;38.27;;;21.03;;
15102;SDS011;7652;53.584;9.998;2023-02-15T04:07:51;42.10;;;21.07;;
15102;SDS011;7652;53.584;9.998;2023-02-15T04:10:54;37.43;;;20.00;;
15102;SDS011;7652;53.584;9.998;2023-02-15T04:13:57;37.87;;;20.10;;
15102;SDS011;7652;53.584;9.998;2023-02-15T04:17:20;36.90;;;20.40;;
15102;SDS011;7652;53.584;9.998;2023-02-15T04:20:22;40.33;;;19.60;;
15102;SDS011;7652;53.584;9.998;2023-02-15T04:23:44;36.80;;;19.27;;
15102;SDS011;7652;53.584;9.998;2023-02-15T04:27:05;36.67;;;19.47;;
15102;SDS011;7652;53.584;9.998;2023-02-15T04:30:08;34.73;;;18.37;;
15102;SDS011;7652;53.584;9.998;2023-02-15T04:33:13;37.10;;;19.30;;
15102;SDS011;7652;53.584;9.998;2023-02-15T04:36:16;38.03;;;19.27;;
15102;SDS011;7652;53.584;9.998;2023-02-15T04:39:20;35.10;;;20.13;;
15102;SDS011;7652;53.584;9.998;2023-02-15T04:42:23;37.63;;;19.67;;
15102;SDS011;7652;53.584;9.998;2023-02-15T04:45:27;40.13;;;20.87;;
15102;SDS011;7652;53.584;9.998;2023-02-15T04:48:30;37.60;;;20.33;;
15102;SDS011;7652;53.584;9.998;2023-02-15T04:51:33;40.13;;;19.53;;
15102;SDS011;7652;53.584;9.998;2023-02-15T04:54:37;42.03;;;22.17;;
15102;SDS011;7652;53.584;9.998;2023-02-15T04:57:40;35.73;;;18.67;;
15102;SDS011;7652;53.584;9.998;2023-02-15T05:00:43;38.07;;;19.77;;
15102;SDS011;7652;53.584;9.998;2023-02-15T05:03:46;30.30;;;17.57;;
15102;SDS011;7652;53.584;9.998;2023-02-15T05:06:49;34.73;;;19.37;;
15102;SDS011;7652;53.584;9.998;2023-02-15T05:09:54;35.57;;;20.13;;
15102;SDS011;7652;53.584;9.998;2023-02-15T05:12:57;34.33;;;18.60;;
15102;SDS011;7652;53.584;9.998;2023-02-15T05:16:00;40.40;;;19.40;;
15102;SDS011;7652;53.584;9.998;2023-02-15T05:19:03;34.07;;;19.57;;
15102;SDS011;7652;53.584;9.998;2023-02-15T05:22:06;35.20;;;19.10;;
15102;SDS011;7652;53.584;9.998;2023-02-15T05:25:10;35.80;;;19.20;;
15102;SDS011;7652;53.584;9.998;2023-02-15T05:28:31;32.63;;;18.87;;
15102;SDS011;7652;53.584;9.998;2023-02-15T05:31:34;36.87;;;19.00;;
15102;SDS011;7652;53.584;9.998;2023-02-15T05:34:38;34.27;;;18.53;;
15102;SDS011;7652;53.584;9.998;2023-02-15T05:37:40;39.43;;;19.43;;
15102;SDS011;7652;53.584;9.998;2023-02-15T05:40:45;34.27;;;19.17;;
15102;SDS011;7652;53.584;9.998;2023-02-15T05:43:50;33.57;;;18.87;;
15102;SDS011;7652;53.584;9.998;2023-02-15T05:46:53;38.20;;;19.63;;
15102;SDS011;7652;53.584;9.998;2023-02-15T05:49:56;36.03;;;19.57;;
15102;SDS011;7652;53.584;9.998;2023-02-15T05:52:59;29.10;;;16.90;;
15102;SDS011;7652;53.584;9.998;2023-02-15T05:56:04;38.33;;;19.03;;
15102;SDS011;7652;53.584;9.998;2023-02-15T05:59:08;36.07;;;18.90;;
15102;SDS011;7652;53.584;9.998;2023-02-15T06:02:12;43.33;;;21.67;;
15102;SDS011;7652;53.584;9.998;2023-02-15T06:05:16;29.63;;;18.30;;
15102;SDS011;7652;53.584;9.998;2023-02-15T06:08:19;38.17;;;19.60;;
15102;SDS011;7652;53.584;9.998;2023-02-15T06:11:24;33.93;;;19.63;;
15102;SDS011;7652;53.584;9.998;2023-02-15T06:14:27;32.20;;;17.80;;
15102;SDS011;7652;53.584;9.998;2023-02-15T06:17:30;37.43;;;19.27;;
15102;SDS011;7652;53.584;9.998;2023-02-15T06:20:33;36.03;;;19.37;;
15102;SDS011;7652;53.584;9.998;2023-02-15T06:23:36;38.57;;;20.63;;
15102;SDS011;7652;53.584;9.998;2023-02-15T06:26:41;37.57;;;19.77;;
15102;SDS011;7652;53.584;9.998;2023-02-15T06:29:44;43.97;;;21.20;;
15102;SDS011;7652;53.584;9.998;2023-02-15T06:32:48;36.67;;;20.17;;
15102;SDS011;7652;53.584;9.998;2023-02-15T06:35:51;44.20;;;21.83;;
15102;SDS011;7652;53.584;9.998;2023-02-15T06:38:54;38.40;;;20.30;;
15102;SDS011;7652;53.584;9.998;2023-02-15T06:41:59;43.93;;;20.47;;
15102;SDS011;7652;53.584;9.998;2023-02-15T06:45:02;37.50;;;19.93;;
15102;SDS011;7652;53.584;9.998;2023-02-15T06:48:08;35.73;;;19.13;;
15102;SDS011;7652;53.584;9.998;2023-02-15T06:51:12;37.40;;;20.50;;
15102;SDS011;7652;53.584;9.998;2023-02-15T06:54:15;41.03;;;20.30;;
15102;SDS011;7652;53.584;9.998;2023-02-15T06:57:19;36.03;;;18.97;;
15102;SDS011;7652;53.584;9.998;2023-02-15T07:00:22;40.60;;;20.00;;
15102;SDS011;7652;53.584;9.998;2023-02-15T07:03:26;41.27;;;19.77;;
15102;SDS011;7652;53.584;9.998;2023-02-15T07:06:30;34.90;;;19.80;;
15102;SDS011;7652;53.584;9.998;2023-02-15T07:09:33;39.83;;;20.03;;
15102;SDS011;7652;53.584;9.998;2023-02-15T07:12:38;36.03;;;19.50;;
15102;SDS011;7652;53.584;9.998;2023-02-15T07:15:47;41.07;;;20.00;;
15102;SDS011;7652;53.584;9.998;2023-02-15T07:18:51;38.17;;;19.83;;
15102;SDS011;7652;53.584;9.998;2023-02-15T07:21:54;38.53;;;19.27;;
15102;SDS011;7652;53.584;9.998;2023-02-15T07:24:57;32.50;;;19.80;;
15102;SDS011;7652;53.584;9.998;2023-02-15T07:28:02;35.60;;;18.87;;
15102;SDS011;7652;53.584;9.998;2023-02-15T07:31:05;37.27;;;20.20;;
15102;SDS011;7652;53.584;9.998;2023-02-15T07:34:09;34.57;;;18.43;;
15102;SDS011;7652;53.584;9.998;2023-02-15T07:37:12;33.80;;;19.40;;
15102;SDS011;7652;53.584;9.998;2023-02-15T07:40:15;38.40;;;19.63;;
15102;SDS011;7652;53.584;9.998;2023-02-15T07:43:20;36.70;;;18.87;;
15102;SDS011;7652;53.584;9.998;2023-02-15T07:46:23;36.63;;;19.63;;
15102;SDS011;7652;53.584;9.998;2023-02-15T07:49:26;34.97;;;19.57;;
15102;SDS011;7652;53.584;9.998;2023-02-15T07:52:29;41.77;;;21.00;;
15102;SDS011;7652;53.584;9.998;2023-02-15T07:55:32;39.10;;;20.70;;
15102;SDS011;7652;53.584;9.998;2023-02-15T07:58:36;35.27;;;18.93;;
15102;SDS011;7652;53.584;9.998;2023-02-15T08:01:56;36.83;;;20.83;;
15102;SDS011;7652;53.584;9.998;2023-02-15T08:04:59;37.13;;;19.37;;
15102;SDS011;7652;53.584;9.998;2023-02-15T08:08:03;37.37;;;20.03;;
15102;SDS011;7652;53.584;9.998;2023-02-15T08:11:13;39.60;;;21.70;;
15102;SDS011;7652;53.584;9.998;2023-02-15T08:14:28;41.97;;;19.50;;
15102;SDS011;7652;53.584;9.998;2023-02-15T08:17:35;39.00;;;20.00;;
15102;SDS011;7652;53.584;9.998;2023-02-15T08:20:38;34.77;;;19.43;;
15102;SDS011;7652;53.584;9.998;2023-02-15T08:23:41;37.67;;;20.10;;
15102;SDS011;7652;53.584;9.998;2023-02-15T08:26:44;33.53;;;18.70;;
15102;SDS011;7652;53.584;9.998;2023-02-15T08:29:50;33.93;;;18.83;;
15102;SDS011;7652;53.584;9.998;2023-02-15T08:32:53;32.10;;;18.33;;
15102;SDS011;7652;53.584;9.998;2023-02-15T08:40:35;32.47;;;18.60;;
15102;SDS011;7652;53.584;9.998;2023-02-15T08:43:39;34.23;;;18.47;;
15102;SDS011;7652;53.584;9.998;2023-02-15T08:46:44;37.60;;;20.60;;
15102;SDS011;7652;53.584;9.998;2023-02-15T08:49:48;38.83;;;19.93;;
15102;SDS011;7652;53.584;9.998;2023-02-15T08:52:52;32.03;;;18.27;;
15102;SDS011;7652;53.584;9.998;2023-02-15T08:55:55;35.23;;;18.43;;
15102;SDS011;7652;53.584;9.998;2023-02-15T08:58:59;32.60;;;19.07;;
15102;SDS011;7652;53.584;9.998;2023-02-15T09:02:03;33.17;;;19.03;;
15102;SDS011;7652;53.584;9.998;2023-02-15T09:05:07;32.90;;;18.03;;
15102;SDS011;7652;53.584;9.998;2023-02-15T09:08:10;36.30;;;19.20;;
15102;SDS011;7652;53.584;9.998;2023-02-15T09:11:14;35.77;;;19.87;;
15102;SDS011;7652;53.584;9.998;2023-02-15T09:14:23;30.07;;;18.17;;
15102;SDS011;7652;53.584;9.998;2023-02-15T09:17:29;36.20;;;19.33;;
15102;SDS011;7652;53.584;9.998;2023-02-15T09:20:34;34.77;;;17.87;;
15102;SDS011;7652;53.584;9.998;2023-02-15T09:23:37;37.47;;;19.43;;
15102;SDS011;7652;53.584;9.998;2023-02-15T09:26:41;31.70;;;18.30;;
15102;SDS011;7652;53.584;9.998;2023-02-15T09:29:45;35.63;;;18.27;;
15102;SDS011;7652;53.584;9.998;2023-02-15T09:32:49;32.37;;;18.27;;
15102;SDS011;7652;53.584;9.998;2023-02-15T09:35:52;27.87;;;16.73;;
15102;SDS011;7652;53.584;9.998;2023-02-15T09:38:56;35.33;;;19.00;;
15102;SDS011;7652;53.584;9.998;2023-02-15T09:42:06;28.93;;;17.53;;
15102;SDS011;7652;53.584;9.998;2023-02-15T09:45:29;33.47;;;18.53;;
15102;SDS011;7652;53.584;9.998;2023-02-15T09:48:43;32.70;;;17.67;;
15102;SDS011;7652;53.584;9.998;2023-02-15T09:51:55;32.03;;;18.87;;
15102;SDS011;7652;53.584;9.998;2023-02-15T09:55:14;33.70;;;18.63;;
15102;SDS011;7652;53.584;9.998;2023-02-15T09:58:36;42.00;;;20.33;;
15102;SDS011;7652;53.584;9.998;2023-02-15T10:01:50;36.10;;;19.43;;
15102;SDS011;7652;53.584;9.998;2023-02-15T10:05:09;34.67;;;19.53;;
15102;SDS011;7652;53.584;9.998;2023-02-15T10:08:44;38.20;;;19.97;;
15102;SDS011;7652;53.584;9.998;2023-02-15T10:12:13;40.40;;;21.00;;
15102;SDS011;7652;53.584;9.998;2023-02-15T10:15:28;40.93;;;20.90;;
15102;SDS011;7652;53.584;9.998;2023-02-15T10:18:55;41.33;;;21.57;;
15102;SDS011;7652;53.584;9.998;2023-02-15T10:22:09;37.97;;;21.20;;
15102;SDS011;7652;53.584;9.998;2023-02-15T10:25:26;38.87;;;21.00;;
15102;SDS011;7652;53.584;9.998;2023-02-15T10:28:36;37.83;;;20.43;;
15102;SDS011;7652;53.584;9.998;2023-02-15T10:31:47;42.43;;;21.70;;
15102;SDS011;7652;53.584;9.998;2023-02-15T10:34:52;40.87;;;22.37;;
15102;SDS011;7652;53.584;9.998;2023-02-15T10:38:06;40.00;;;22.33;;
15102;SDS011;7652;53.584;9.998;2023-02-15T10:41:23;40.43;;;21.17;;
15102;SDS011;7652;53.584;9.998;2023-02-15T10:44:38;43.90;;;22.27;;
15102;SDS011;7652;53.584;9.998;2023-02-15T10:51:19;36.30;;;21.50;;
15102;SDS011;7652;53.584;9.998;2023-02-15T10:54:32;37.27;;;21.53;;
15102;SDS011;7652;53.584;9.998;2023-02-15T10:57:43;37.13;;;20.63;;
15102;SDS011;7652;53.584;9.998;2023-02-15T11:00:56;34.63;;;20.67;;
15102;SDS011;7652;53.584;9.998;2023-02-15T11:04:09;37.70;;;21.13;;
15102;SDS011;7652;53.584;9.998;2023-02-15T11:07:33;38.03;;;21.87;;
15102;SDS011;7652;53.584;9.998;2023-02-15T11:10:43;40.87;;;21.67;;
15102;SDS011;7652;53.584;9.998;2023-02-15T11:13:53;36.10;;;20.67;;
15102;SDS011;7652;53.584;9.998;2023-02-15T11:16:59;38.83;;;22.50;;
15102;SDS011;7652;53.584;9.998;2023-02-15T11:20:08;36.97;;;21.90;;
15102;SDS011;7652;53.584;9.998;2023-02-15T11:23:19;40.37;;;23.13;;
15102;SDS011;7652;53.584;9.998;2023-02-15T11:26:26;39.17;;;22.73;;
15102;SDS011;7652;53.584;9.998;2023-02-15T11:29:36;40.30;;;22.93;;
15102;SDS011;7652;53.584;9.998;2023-02-15T11:32:43;43.40;;;22.70;;
15102;SDS011;7652;53.584;9.998;2023-02-15T11:35:49;44.90;;;23.80;;
15102;SDS011;7652;53.584;9.998;2023-02-15T11:38:57;42.20;;;24.33;;
15102;SDS011;7652;53.584;9.998;2023-02-15T11:42:06;44.20;;;23.90;;
15102;SDS011;7652;53.584;9.998;2023-02-15T11:45:18;41.47;;;24.90;;
15102;SDS011;7652;53.584;9.998;2023-02-15T11:48:24;36.27;;;23.03;;
15102;SDS011;7652;53.584;9.998;2023-02-15T11:51:27;38.50;;;22.83;;
15102;SDS011;7652;53.584;9.998;2023-02-15T11:54:32;33.50;;;22.30;;
15102;SDS011;7652;53.584;9.998;2023-02-15T11:57:39;34.13;;;21.93;;
15102;SDS011;7652;53.584;9.998;2023-02-15T12:00:47;38.03;;;21.87;;
15102;SDS011;7652;53.584;9.998;2023-02-15T12:03:55;34.67;;;21.10;;
15102;SDS011;7652;53.584;9.998;2023-02-15T12:07:02;30.83;;;20.80;;
15102;SDS011;7652;53.584;9.998;2023-02-15T12:10:13;31.30;;;20.23;;
15102;SDS011;7652;53.584;9.998;2023-02-15T12:13:21;36.63;;;20.13;;
15102;SDS011;7652;53.584;9.998;2023-02-15T12:16:25;34.40;;;22.13;;
15102;SDS011;7652;53.584;9.998;2023-02-15T12:19:30;34.33;;;21.97;;
15102;SDS011;7652;53.584;9.998;2023-02-15T12:22:36;31.13;;;21.27;;
15102;SDS011;7652;53.584;9.998;2023-02-15T12:25:40;31.83;;;21.00;;
15102;SDS011;7652;53.584;9.998;2023-02-15T12:28:48;28.33;;;20.87;;
15102;SDS011;7652;53.584;9.998;2023-02-15T12:31:53;29.47;;;20.77;;
15102;SDS011;7652;53.584;9.998;2023-02-15T12:34:59;27.60;;;20.03;;
15102;SDS011;7652;53.584;9.998;2023-02-15T12:38:05;26.07;;;18.70;;
15102;SDS011;7652;53.584;9.998;2023-02-15T12:41:25;29.37;;;19.83;;
15102;SDS011;7652;53.584;9.998;2023-02-15T12:44:30;30.43;;;20.70;;
15102;SDS011;7652;53.584;9.998;2023-02-15T12:47:34;31.57;;;19.27;;
15102;SDS011;7652;53.584;9.998;2023-02-15T12:50:37;32.10;;;20.33;;
15102;SDS011;7652;53.584;9.998;2023-02-15T12:53:41;28.37;;;20.67;;
15102;SDS011;7652;53.584;9.998;2023-02-15T12:56:45;27.93;;;19.33;;
15102;SDS011;7652;53.584;9.998;2023-02-15T12:59:50;26.57;;;19.20;;
15102;SDS011;7652;53.584;9.998;2023-02-15T13:02:55;26.33;;;19.20;;
15102;SDS011;7652;53.584;9.998;2023-02-15T13:05:59;31.93;;;22.00;;
15102;SDS011;7652;53.584;9.998;2023-02-15T13:09:12;30.47;;;19.77;;
15102;SDS011;7652;53.584;9.998;2023-02-15T13:12:20;27.37;;;20.40;;
15102;SDS011;7652;53.584;9.998;2023-02-15T13:15:28;29.80;;;20.60;;
15102;SDS011;7652;53.584;9.998;2023-02-15T13:18:37;31.03;;;21.83;;
15102;SDS011;7652;53.584;9.998;2023-02-15T13:21:43;28.07;;;20.80;;
15102;SDS011;7652;53.584;9.998;2023-02-15T13:24:48;27.03;;;21.07;;
15102;SDS011;7652;53.584;9.998;2023-02-15T13:27:56;27.53;;;20.57;;
15102;SDS011;7652;53.584;9.998;2023-02-15T13:31:04;35.47;;;21.97;;
15102;SDS011;7652;53.584;9.998;2023-02-15T13:34:15;30.37;;;22.27;;
15102;SDS011;7652;53.584;9.998;2023-02-15T13:37:26;35.83;;;24.00;;
15102;SDS011;7652;53.584;9.998;2023-02-15T13:40:46;30.37;;;22.77;;
15102;SDS011;7652;53.584;9.998;2023-02-15T13:43:57;32.60;;;23.17;;
15102;SDS011;7652;53.584;9.998;2023-02-15T13:47:13;32.63;;;23.90;;
15102;SDS011;7652;53.584;9.998;2023-02-15T13:50:28;32.90;;;22.03;;
15102;SDS011;7652;53.584;9.998;2023-02-15T13:53:50;32.37;;;22.70;;
15102;SDS011;7652;53.584;9.998;2023-02-15T13:57:04;36.70;;;22.60;;
15102;SDS011;7652;53.584;9.998;2023-02-15T14:00:27;28.43;;;19.90;;
15102;SDS011;7652;53.584;9.998;2023-02-15T14:03:49;30.47;;;19.77;;
15102;SDS011;7652;53.584;9.998;2023-02-15T14:07:07;24.37;;;18.30;;
15102;SDS011;7652;53.584;9.998;2023-02-15T14:10:38;23.10;;;17.97;;
15102;SDS011;7652;53.584;9.998;2023-02-15T14:14:05;23.23;;;17.93;;
15102;SDS011;7652;53.584;9.998;2023-02-15T14:17:29;25.67;;;17.63;;
15102;SDS011;7652;53.584;9.998;2023-02-15T14:20:43;24.73;;;17.80;;
15102;SDS011;7652;53.584;9.998;2023-02-15T14:24:02;20.13;;;15.87;;
15102;SDS011;7652;53.584;9.998;2023-02-15T14:27:17;22.13;;;17.03;;
15102;SDS011;7652;53.584;9.998;2023-02-15T14:30:28;23.53;;;16.77;;
15102;SDS011;7652;53.584;9.998;2023-02-15T14:33:35;25.80;;;16.93;;
15102;SDS011;7652;53.584;9.998;2023-02-15T14:36:42;23.20;;;16.40;;
15102;SDS011;7652;53.584;9.998;2023-02-15T14:39:47;21.10;;;15.67;;
15102;SDS011;7652;53.584;9.998;2023-02-15T14:43:16;21.97;;;15.63;;
15102;SDS011;7652;53.584;9.998;2023-02-15T14:46:28;22.03;;;17.17;;
15102;SDS011;7652;53.584;9.998;2023-02-15T14:49:37;24.20;;;17.23;;
15102;SDS011;7652;53.584;9.998;2023-02-15T14:52:50;21.17;;;16.10;;
15102;SDS011;7652;53.584;9.998;2023-02-15T14:56:46;21.77;;;16.50;;
15102;SDS011;7652;53.584;9.998;2023-02-15T15:00:37;20.77;;;15.43;;
15102;SDS011;7652;53.584;9.998;2023-02-15T15:03:50;21.40;;;17.53;;
15102;SDS011;7652;53.584;9.998;2023-02-15T15:06:59;22.37;;;16.57;;
15102;SDS011;7652;53.584;9.998;2023-02-15T15:13:53;20.77;;;15.23;;
15102;SDS011;7652;53.584;9.998;2023-02-15T15:16:58;21.67;;;15.93;;
15102;SDS011;7652;53.584;9.998;2023-02-15T15:20:02;21.23;;;15.37;;
15102;SDS011;7652;53.584;9.998;2023-02-15T15:23:33;22.33;;;15.83;;
15102;SDS011;7652;53.584;9.998;2023-02-15T15:26:46;22.43;;;15.90;;
15102;SDS011;7652;53.584;9.998;2023-02-15T15:29:52;19.17;;;14.80;;
15102;SDS011;7652;53.584;9.998;2023-02-15T15:32:56;20.30;;;15.20;;
15102;SDS011;7652;53.584;9.998;2023-02-15T15:36:12;19.67;;;14.57;;
15102;SDS011;7652;53.584;9.998;2023-02-15T15:43:29;20.23;;;14.93;;
15102;SDS011;7652;53.584;9.998;2023-02-15T15:46:55;22.83;;;15.87;;
15102;SDS011;7652;53.584;9.998;2023-02-15T15:50:10;20.77;;;15.80;;
15102;SDS011;7652;53.584;9.998;2023-02-15T15:53:17;19.23;;;14.73;;
15102;SDS011;7652;53.584;9.998;2023-02-15T15:56:23;24.00;;;16.63;;
15102;SDS011;7652;53.584;9.998;2023-02-15T15:59:31;24.83;;;16.10;;
15102;SDS011;7652;53.584;9.998;2023-02-15T16:02:35;22.60;;;16.13;;
15102;SDS011;7652;53.584;9.998;2023-02-15T16:05:52;22.60;;;16.43;;
15102;SDS011;7652;53.584;9.998;2023-02-15T16:08:57;23.43;;;14.30;;
15102;SDS011;7652;53.584;9.998;2023-02-15T16:12:13;19.50;;;14.70;;
15102;SDS011;7652;53.584;9.998;2023-02-15T16:15:25;22.77;;;15.43;;
15102;SDS011;7652;53.584;9.998;2023-02-15T16:18:33;20.77;;;14.80;;
15102;SDS011;7652;53.584;9.998;2023-02-15T16:21:43;21.73;;;15.20;;
15102;SDS011;7652;53.584;9.998;2023-02-15T16:24:58;19.63;;;14.50;;
15102;SDS011;7652;53.584;9.998;2023-02-15T16:28:22;20.67;;;14.97;;
15102;SDS011;7652;53.584;9.998;2023-02-15T16:31:26;20.27;;;15.37;;
15102;SDS011;7652;53.584;9.998;2023-02-15T16:34:30;21.93;;;15.80;;
15102;SDS011;7652;53.584;9.998;2023-02-15T16:37:34;19.10;;;14.10;;
15102;SDS011;7652;53.584;9.998;2023-02-15T16:40:41;18.80;;;14.40;;
15102;SDS011;7652;53.584;9.998;2023-02-15T16:43:54;20.30;;;14.67;;
15102;SDS011;7652;53.584;9.998;2023-02-15T16:47:01;19.47;;;14.10;;
15102;SDS011;7652;53.584;9.998;2023-02-15T16:50:05;24.10;;;15.27;;
15102;SDS011;7652;53.584;9.998;2023-02-15T16:53:16;20.90;;;14.57;;
15102;SDS011;7652;53.584;9.998;2023-02-15T16:56:23;22.30;;;15.07;;
15102;SDS011;7652;53.584;9.998;2023-02-15T16:59:30;23.70;;;15.83;;
15102;SDS011;7652;53.584;9.998;2023-02-15T17:02:37;20.27;;;14.43;;
15102;SDS011;7652;53.584;9.998;2023-02-15T17:05:56;20.13;;;14.63;;
15102;SDS011;7652;53.584;9.998;2023-02-15T17:09:02;20.47;;;14.37;;
15102;SDS011;7652;53.584;9.998;2023-02-15T17:12:08;20.50;;;14.40;;
15102;SDS011;7652;53.584;9.998;2023-02-15T17:15:24;22.90;;;15.60;;
15102;SDS011;7652;53.584;9.998;2023-02-15T17:18:30;20.73;;;15.33;;
15102;SDS011;7652;53.584;9.998;2023-02-15T17:21:36;20.30;;;15.80;;
15102;SDS011;7652;53.584;9.998;2023-02-15T17:24:43;22.70;;;15.83;;
15102;SDS011;7652;53.584;9.998;2023-02-15T17:27:52;22.07;;;16.10;;
15102;SDS011;7652;53.584;9.998;2023-02-15T17:30:57;25.10;;;17.80;;
15102;SDS011;7652;53.584;9.998;2023-02-15T17:34:03;25.30;;;17.43;;
15102;SDS011;7652;53.584;9.998;2023-02-15T17:37:09;25.80;;;17.80;;
15102;SDS011;7652;53.584;9.998;2023-02-15T17:40:22;21.60;;;14.97;;
15102;SDS011;7652;53.584;9.998;2023-02-15T17:43:26;25.30;;;17.47;;
15102;SDS011;7652;53.584;9.998;2023-02-15T17:46:31;23.47;;;16.93;;
15102;SDS011;7652;53.584;9.998;2023-02-15T17:49:38;27.77;;;16.80;;
15102;SDS011;7652;53.584;9.998;2023-02-15T17:52:41;24.20;;;16.90;;
15102;SDS011;7652;53.584;9.998;2023-02-15T17:55:44;21.67;;;15.63;;
15102;SDS011;7652;53.584;9.998;2023-02-15T17:58:47;25.47;;;16.67;;
15102;SDS011;7652;53.584;9.998;2023-02-15T18:01:50;22.43;;;15.50;;
15102;SDS011;7652;53.584;9.998;2023-02-15T18:05:12;22.43;;;16.10;;
15102;SDS011;7652;53.584;9.998;2023-02-15T18:08:34;23.47;;;16.00;;
15102;SDS011;7652;53.584;9.998;2023-02-15T18:11:54;25.37;;;16.67;;
15102;SDS011;7652;53.584;9.998;2023-02-15T18:14:57;26.00;;;16.67;;
15102;SDS011;7652;53.584;9.998;2023-02-15T18:18:02;25.83;;;16.73;;
15102;SDS011;7652;53.584;9.998;2023-02-15T18:21:06;22.00;;;15.43;;
15102;SDS011;7652;53.584;9.998;2023-02-15T18:24:16;25.30;;;16.33;;
15102;SDS011;7652;53.584;9.998;2023-02-15T18:27:20;24.30;;;15.87;;
15102;SDS011;7652;53.584;9.998;2023-02-15T18:30:23;23.90;;;16.97;;
15102;SDS011;7652;53.584;9.998;2023-02-15T18:33:30;24.03;;;16.20;;
15102;SDS011;7652;53.584;9.998;2023-02-15T18:36:39;24.33;;;16.10;;
15102;SDS011;7652;53.584;9.998;2023-02-15T18:39:45;26.57;;;17.97;;
15102;SDS011;7652;53.584;9.998;2023-02-15T18:42:50;25.40;;;16.73;;
15102;SDS011;7652;53.584;9.998;2023-02-15T18:45:53;28.07;;;17.90;;
15102;SDS011;7652;53.584;9.998;2023-02-15T18:48:56;26.07;;;16.63;;
15102;SDS011;7652;53.584;9.998;2023-02-15T18:52:01;24.60;;;17.23;;
15102;SDS011;7652;53.584;9.998;2023-02-15T18:55:11;25.50;;;17.40;;
15102;SDS011;7652;53.584;9.998;2023-02-15T18:58:19;25.90;;;16.10;;
15102;SDS011;7652;53.584;9.998;2023-02-15T19:01:24;25.70;;;17.03;;
15102;SDS011;7652;53.584;9.998;2023-02-15T19:04:27;23.80;;;16.70;;